createdAt,value
2023-04-27T00:00:02.314Z,7.62
2023-04-27T00:07:01.447Z,7.69
2023-04-27T00:14:01.896Z,7.69
2023-04-27T00:21:02.127Z,7.65
2023-04-27T00:28:01.311Z,7.52
2023-04-27T00:35:01.787Z,7.38
2023-04-27T00:42:02.193Z,7.38
2023-04-27T00:49:01.511Z,7.19
2023-04-27T00:56:01.584Z,7.31
2023-04-27T01:00:02.155Z,7.31
2023-04-27T01:07:01.612Z,7.25
2023-04-27T01:14:02.094Z,7.33
2023-04-27T01:21:01.596Z,7.33
2023-04-27T01:28:01.487Z,7.21
2023-04-27T01:35:02.094Z,7.05
2023-04-27T01:42:02.055Z,7.05
2023-04-27T01:49:02.035Z,7.05
2023-04-27T01:56:02.077Z,6.87
2023-04-27T02:00:01.624Z,6.87
2023-04-27T02:07:01.918Z,6.81
2023-04-27T02:14:01.507Z,6.79
2023-04-27T02:21:01.392Z,6.83
2023-04-27T02:28:01.528Z,6.83
2023-04-27T02:35:01.956Z,6.67
2023-04-27T02:42:01.792Z,6.58
2023-04-27T02:49:02.192Z,6.58
2023-04-27T02:56:01.452Z,6.5
2023-04-27T03:00:03.646Z,6.37
2023-04-27T03:07:02.063Z,6.37
2023-04-27T03:14:02.165Z,6.4
2023-04-27T03:21:01.793Z,6.34
2023-04-27T03:28:02.386Z,6.34
2023-04-27T03:35:02.205Z,6.19
2023-04-27T03:42:02.219Z,6.05
2023-04-27T03:49:02.038Z,5.93
2023-04-27T03:56:02.172Z,5.93
2023-04-27T04:00:01.764Z,5.85
2023-04-27T04:07:01.398Z,5.85
2023-04-27T04:14:01.486Z,5.84
2023-04-27T04:21:02.116Z,5.74
2023-04-27T04:28:01.547Z,5.78
2023-04-27T04:35:02.403Z,5.78
2023-04-27T04:42:01.557Z,5.79
2023-04-27T04:49:01.296Z,5.15
2023-04-27T04:56:01.409Z,5.73
2023-04-27T05:00:02.021Z,5.73
2023-04-27T05:07:01.783Z,5.71
2023-04-27T05:14:01.654Z,5.71
2023-04-27T05:21:01.923Z,5.67
2023-04-27T05:28:01.894Z,5.77
2023-04-27T05:35:01.718Z,5.81
2023-04-27T05:42:01.511Z,5.81
2023-04-27T05:49:02.270Z,5.84
2023-04-27T05:56:01.698Z,5.96
2023-04-27T06:00:02.268Z,5.96
2023-04-27T06:07:01.757Z,6.01
2023-04-27T06:14:02.530Z,6.26
2023-04-27T06:21:01.904Z,6.26
2023-04-27T06:28:02.183Z,6.4
2023-04-27T06:35:01.757Z,6.55
2023-04-27T06:42:02.211Z,6.76
2023-04-27T06:49:02.011Z,6.76
2023-04-27T06:56:01.379Z,6.87
2023-04-27T07:00:02.000Z,6.87
2023-04-27T07:07:02.283Z,7.01
2023-04-27T07:14:01.590Z,7.12
2023-04-27T07:21:02.251Z,7.45
2023-04-27T07:28:02.008Z,7.45
2023-04-27T07:35:01.521Z,7.55
2023-04-27T07:42:02.213Z,7.74
2023-04-27T07:49:02.019Z,7.74
2023-04-27T07:56:01.596Z,7.91
2023-04-27T08:00:02.154Z,7.99
2023-04-27T08:07:02.436Z,7.99
2023-04-27T08:14:01.398Z,8.25
2023-04-27T08:21:01.891Z,8.35
2023-04-27T08:28:01.415Z,8.35
2023-04-27T08:35:01.524Z,8.49
2023-04-27T08:42:01.644Z,8.67
2023-04-27T08:49:01.702Z,8.86
2023-04-27T08:56:01.777Z,8.86
2023-04-27T09:00:02.805Z,9.08
2023-04-27T09:07:01.867Z,9.2
2023-04-27T09:14:01.614Z,9.2
2023-04-27T09:21:01.434Z,9.45
2023-04-27T09:28:02.241Z,9.62
2023-04-27T09:35:02.432Z,9.62
2023-04-27T09:42:02.103Z,9.82
2023-04-27T09:49:01.440Z,9.93
2023-04-27T09:56:01.874Z,10
2023-04-27T10:00:02.547Z,10
2023-04-27T10:07:02.075Z,10.13
2023-04-27T10:14:01.894Z,10.13
2023-04-27T10:21:01.697Z,10.16
2023-04-27T10:28:01.404Z,10.56
2023-04-27T10:35:01.645Z,10.63
2023-04-27T10:42:01.471Z,10.63
2023-04-27T10:49:01.667Z,10.75
2023-04-27T10:56:01.523Z,11.03
2023-04-27T11:00:02.146Z,11.03
2023-04-27T11:07:01.872Z,11.11
2023-04-27T11:14:02.254Z,11.22
2023-04-27T11:21:01.319Z,11.22
2023-04-27T11:28:01.654Z,11.31
2023-04-27T11:35:01.608Z,11.41
2023-04-27T11:42:01.904Z,11.51
2023-04-27T11:49:01.477Z,11.51
2023-04-27T11:56:01.736Z,11.4
2023-04-27T12:00:02.402Z,11.4
2023-04-27T12:07:01.424Z,11.5
2023-04-27T12:14:01.344Z,11.52
2023-04-27T12:21:03.509Z,11.48
2023-04-27T12:28:01.772Z,11.48
2023-04-27T12:35:01.655Z,11.59
2023-04-27T12:42:01.726Z,11.66
2023-04-27T12:49:02.033Z,11.66
2023-04-27T12:56:01.423Z,11.65
2023-04-27T13:00:02.184Z,11.69
2023-04-27T13:07:01.359Z,11.69
2023-04-27T13:14:02.244Z,11.68
2023-04-27T13:21:02.154Z,11.93
2023-04-27T13:28:01.628Z,11.9
2023-04-27T13:35:02.396Z,11.9
2023-04-27T13:42:01.905Z,12.06
2023-04-27T13:49:01.518Z,12.1
2023-04-27T13:56:01.798Z,12.1
2023-04-27T14:00:02.359Z,12.21
2023-04-27T14:07:01.553Z,12.31
2023-04-27T14:14:02.247Z,12.31
2023-04-27T14:21:02.128Z,12.51
2023-04-27T14:28:02.070Z,12.51
2023-04-27T14:35:02.214Z,12.51
2023-04-27T14:42:01.742Z,12.98
2023-04-27T14:49:01.763Z,12.98
2023-04-27T14:56:01.439Z,12.98
2023-04-27T15:00:02.135Z,12.98
2023-04-27T15:07:01.909Z,12.98
2023-04-27T15:14:01.972Z,13.01
2023-04-27T15:21:02.108Z,13.03
2023-04-27T15:28:01.637Z,13.17
2023-04-27T15:35:02.452Z,13.17
2023-04-27T15:42:01.594Z,13.16
2023-04-27T15:49:01.609Z,13.2
2023-04-27T15:56:02.146Z,13.2
2023-04-27T16:00:01.708Z,13.19
2023-04-27T16:07:01.814Z,13.19
2023-04-27T16:14:01.833Z,13.19
2023-04-27T16:21:01.781Z,13.04
2023-04-27T16:28:01.997Z,13.2
2023-04-27T16:35:02.363Z,13.2
2023-04-27T16:42:01.557Z,13.23
2023-04-27T16:49:01.531Z,13.13
2023-04-27T16:56:02.252Z,13.19
2023-04-27T17:00:01.913Z,13.19
2023-04-27T17:07:01.802Z,13.08
2023-04-27T17:14:01.448Z,13.08
2023-04-27T17:21:01.923Z,13.08
2023-04-27T17:28:01.905Z,13.05
2023-04-27T17:35:02.366Z,12.99
2023-04-27T17:42:01.917Z,12.99
2023-04-27T17:49:01.595Z,12.9
2023-04-27T17:56:01.923Z,12.81
2023-04-27T18:00:02.475Z,12.81
2023-04-27T18:07:01.557Z,12.79
2023-04-27T18:14:01.855Z,12.62
2023-04-27T18:21:01.767Z,12.62
2023-04-27T18:28:02.296Z,12.57
2023-04-27T18:35:02.310Z,12.46
2023-04-27T18:42:01.865Z,12.36
2023-04-27T18:49:02.021Z,12.36
2023-04-27T18:56:01.507Z,11.94
2023-04-27T19:00:02.128Z,11.94
2023-04-27T19:07:02.241Z,12.2
2023-04-27T19:14:02.055Z,12.08
2023-04-27T19:21:01.741Z,11.96
2023-04-27T19:28:01.389Z,11.96
2023-04-27T19:35:02.416Z,11.76
2023-04-27T19:42:02.204Z,11.89
2023-04-27T19:49:02.130Z,11.82
2023-04-27T19:56:01.802Z,11.82
2023-04-27T20:00:02.428Z,11.08
2023-04-27T20:07:02.467Z,11.08
2023-04-27T20:14:01.957Z,11.63
2023-04-27T20:21:01.439Z,11.42
2023-04-27T20:28:01.882Z,11.55
2023-04-27T20:35:02.351Z,11.55
2023-04-27T20:42:01.385Z,11.54
2023-04-27T20:49:01.656Z,11.34
2023-04-27T20:56:01.671Z,11.45
2023-04-27T21:00:02.228Z,11.45
2023-04-27T21:07:01.629Z,11.45
2023-04-27T21:14:02.083Z,11.45
2023-04-27T21:21:01.973Z,11.34
2023-04-27T21:28:02.157Z,11.33
2023-04-27T21:35:01.972Z,11.05
2023-04-27T21:42:01.929Z,11.05
2023-04-27T21:49:01.693Z,11.31
2023-04-27T21:56:01.579Z,11.23
2023-04-27T22:00:02.120Z,11.23
2023-04-27T22:07:02.258Z,11.12
2023-04-27T22:14:01.423Z,11.14
2023-04-27T22:21:02.081Z,11.14
2023-04-27T22:28:01.289Z,11.22
2023-04-27T22:35:01.551Z,11.18
2023-04-27T22:42:01.793Z,11.15
2023-04-27T22:49:01.767Z,11.15
2023-04-27T22:56:01.527Z,10.91
2023-04-27T23:00:02.068Z,10.91
2023-04-27T23:07:01.889Z,10.96
2023-04-27T23:14:01.684Z,10.94
2023-04-27T23:21:01.839Z,11.18
2023-04-27T23:28:01.863Z,11.18
2023-04-27T23:35:01.635Z,11.16
2023-04-27T23:42:01.790Z,10.67
2023-04-27T23:49:01.714Z,11.04
2023-04-27T23:56:01.894Z,11.04
